Time;durP1;ratioP1;P1;durP2;ratioP2;P2;SDS_P1;SDS_P2;PMS_P1;PMS_P2;Temp;Humidity;BMP_temperature;BMP_pressure;BME280_temperature;BME280_humidity;BME280_pressure;Samples;Min_cycle;Max_cycle;Signal;HPM_P1;HPM_P2
2022/03/02 00:00:26;;;;;;;25.00;17.43;;;;;;;4.95;64.84;100121.69;5033236;28;20247;-61
2022/03/02 00:02:53;;;;;;;23.57;16.83;;;;;;;4.91;65.22;100118.94;5050380;28;20248;-60
2022/03/02 00:05:20;;;;;;;21.43;16.17;;;;;;;4.78;66.26;100121.69;5053949;28;20559;-61
2022/03/02 00:07:48;;;;;;;22.57;15.43;;;;;;;4.57;66.55;100124.94;5053921;28;20205;-59
2022/03/02 00:10:15;;;;;;;16.27;13.33;;;;;;;4.35;67.48;100121.22;5053404;28;20202;-60
2022/03/02 00:12:42;;;;;;;15.40;11.67;;;;;;;4.11;68.82;100123.41;5053782;28;20239;-60
2022/03/02 00:15:09;;;;;;;14.43;10.90;;;;;;;3.85;69.92;100116.94;5053516;28;20203;-60
2022/03/02 00:17:36;;;;;;;14.87;10.67;;;;;;;3.72;70.64;100114.56;5053472;28;20205;-60
2022/03/02 00:20:04;;;;;;;18.17;11.97;;;;;;;3.63;72.29;100105.56;5053554;28;20188;-60
2022/03/02 00:22:31;;;;;;;15.90;12.17;;;;;;;3.53;73.35;100109.31;5053360;28;20586;-59
2022/03/02 00:25:00;;;;;;;18.67;13.33;;;;;;;3.40;74.31;100106.91;5053268;28;20230;-60
2022/03/02 00:27:27;;;;;;;19.83;13.47;;;;;;;3.29;75.35;100100.38;5053277;28;20382;-60
2022/03/02 00:29:54;;;;;;;17.90;12.93;;;;;;;3.30;75.23;100097.91;5053164;28;20780;-60
2022/03/02 00:32:21;;;;;;;21.95;16.77;;;;;;;3.26;76.07;100102.75;5052384;28;20443;-60
2022/03/02 00:34:48;;;;;;;19.30;14.37;;;;;;;3.11;76.22;100097.69;5053058;28;20280;-60
2022/03/02 00:37:15;;;;;;;18.60;14.75;;;;;;;3.06;76.79;100093.16;5052940;28;20530;-60
2022/03/02 00:39:43;;;;;;;19.50;14.67;;;;;;;3.11;76.80;100090.06;5053005;28;20200;-60
2022/03/02 00:42:12;;;;;;;21.93;13.70;;;;;;;3.12;77.12;100093.50;5053344;28;20193;-60
2022/03/02 00:44:38;;;;;;;18.57;14.57;;;;;;;3.01;77.15;100081.88;5053220;28;20281;-60
2022/03/02 00:47:07;;;;;;;18.20;13.93;;;;;;;2.95;77.06;100057.91;5052960;28;20194;-60
2022/03/02 00:49:35;;;;;;;22.30;16.13;;;;;;;3.17;77.15;100080.25;5052926;28;20279;-60
2022/03/02 00:52:02;;;;;;;26.50;13.73;;;;;;;3.16;76.46;100073.41;5052675;28;20220;-59
2022/03/02 00:54:29;;;;;;;18.53;14.30;;;;;;;3.18;76.75;100078.59;5045629;28;20236;-60
2022/03/02 00:56:56;;;;;;;21.63;13.47;;;;;;;3.21;77.21;100073.69;5043957;28;20201;-60
2022/03/02 00:59:25;;;;;;;19.55;15.60;;;;;;;3.07;77.20;100069.53;5032667;28;20452;-59
2022/03/02 01:01:52;;;;;;;17.40;13.30;;;;;;;2.88;77.41;100068.50;5032918;28;20185;-60
2022/03/02 01:04:19;;;;;;;18.50;13.57;;;;;;;2.90;78.18;100068.59;5032978;28;20304;-59
2022/03/02 01:06:46;;;;;;;20.60;13.47;;;;;;;2.77;77.63;100063.63;5032437;28;20189;-60
2022/03/02 01:09:13;;;;;;;18.67;13.70;;;;;;;2.76;77.88;100070.38;5050888;28;20311;-60
2022/03/02 01:11:40;;;;;;;18.20;13.87;;;;;;;2.73;78.48;100069.31;5052578;28;20192;-60
2022/03/02 01:14:07;;;;;;;21.00;14.73;;;;;;;2.68;78.54;100073.25;5052415;28;20310;-60
2022/03/02 01:16:36;;;;;;;18.00;14.47;;;;;;;2.73;78.66;100067.66;5051969;28;20208;-60
2022/03/02 01:19:03;;;;;;;23.73;15.50;;;;;;;2.81;78.44;100063.88;5052458;28;20197;-60
2022/03/02 01:21:30;;;;;;;22.67;14.20;;;;;;;2.54;77.98;100018.34;5052186;28;20279;-60
2022/03/02 01:23:59;;;;;;;17.20;13.83;;;;;;;2.66;77.34;100049.47;5052341;28;20749;-59
2022/03/02 01:26:28;;;;;;;19.30;14.80;;;;;;;2.67;78.00;100051.22;5039347;28;20201;-60
2022/03/02 01:28:56;;;;;;;16.00;12.90;;;;;;;2.71;78.06;100043.88;5032358;28;20283;-60
2022/03/02 01:31:23;;;;;;;17.63;13.67;;;;;;;2.80;77.77;100046.06;5032272;28;20197;-60
2022/03/02 01:33:52;;;;;;;17.80;14.50;;;;;;;2.74;77.61;100044.03;5031877;28;20280;-59
2022/03/02 01:36:20;;;;;;;19.07;15.50;;;;;;;2.70;77.64;100036.16;5032215;28;20204;-60
2022/03/02 01:38:47;;;;;;;17.10;14.17;;;;;;;2.64;77.68;100036.69;5032013;28;20192;-60
2022/03/02 01:41:16;;;;;;;19.30;14.93;;;;;;;2.50;78.20;100027.44;5032055;28;20197;-61
2022/03/02 01:43:43;;;;;;;18.83;14.57;;;;;;;2.41;78.52;100033.66;5032110;28;20197;-60
2022/03/02 01:46:10;;;;;;;20.43;14.97;;;;;;;2.33;78.89;100028.16;5031866;28;20281;-61
2022/03/02 01:48:37;;;;;;;22.13;17.63;;;;;;;2.45;79.01;100025.44;5032028;28;20204;-61
2022/03/02 01:51:06;;;;;;;18.23;14.10;;;;;;;2.52;77.53;100035.16;5032012;28;20211;-61
2022/03/02 01:53:33;;;;;;;18.57;13.90;;;;;;;2.60;77.12;100029.72;5031648;28;20794;-61
2022/03/02 01:56:00;;;;;;;18.43;13.10;;;;;;;2.58;77.00;100020.28;5031599;28;20279;-60
2022/03/02 01:58:28;;;;;;;16.25;13.80;;;;;;;2.70;76.71;100016.75;5031510;28;20487;-61
2022/03/02 02:00:56;;;;;;;14.40;11.97;;;;;;;2.80;76.43;100016.44;5031628;28;20282;-60
2022/03/02 02:03:23;;;;;;;18.30;13.00;;;;;;;2.81;75.48;100014.78;5031844;28;20280;-61
2022/03/02 02:05:50;;;;;;;14.53;11.67;;;;;;;2.85;75.02;100006.56;5031653;28;20192;-61
2022/03/02 02:08:18;;;;;;;17.10;13.87;;;;;;;2.80;74.79;100001.22;5031590;28;20664;-61
2022/03/02 02:10:45;;;;;;;17.90;13.47;;;;;;;2.83;75.01;100001.41;5031256;28;20205;-61
2022/03/02 02:13:12;;;;;;;17.20;13.23;;;;;;;2.85;74.96;99998.97;5031219;28;20217;-61
2022/03/02 02:15:39;;;;;;;17.47;14.73;;;;;;;2.82;75.43;99981.91;5031573;28;20579;-61
2022/03/02 02:18:06;;;;;;;18.00;13.87;;;;;;;2.83;75.26;99988.72;5031314;28;20193;-61
2022/03/02 02:20:38;;;;;;;21.75;17.65;;;;;;;2.85;75.48;99982.06;5030688;28;20938;-60
2022/03/02 02:23:05;;;;;;;22.10;16.47;;;;;;;2.84;75.14;99977.78;5031348;28;20693;-61
2022/03/02 02:25:32;;;;;;;19.00;15.10;;;;;;;2.95;75.06;99994.47;5036124;28;20192;-61
2022/03/02 02:28:01;;;;;;;19.40;13.40;;;;;;;2.76;74.77;99955.31;5038493;28;20291;-60
2022/03/02 02:30:29;;;;;;;15.73;13.57;;;;;;;2.94;74.28;99989.28;5030923;28;20308;-61
2022/03/02 02:32:56;;;;;;;17.37;13.30;;;;;;;3.02;74.39;99995.69;5049154;28;20227;-61
2022/03/02 02:35:25;;;;;;;17.63;13.43;;;;;;;3.01;74.57;100000.66;5047933;28;20207;-61
2022/03/02 02:37:54;;;;;;;18.93;13.13;;;;;;;3.03;74.10;99994.88;5034396;28;20660;-61
2022/03/02 02:40:22;;;;;;;15.50;12.97;;;;;;;3.01;74.06;99991.38;5050542;28;20189;-60
2022/03/02 02:42:50;;;;;;;19.27;14.77;;;;;;;3.02;74.01;99993.13;5050922;28;20196;-60
2022/03/02 02:45:20;;;;;;;18.50;13.97;;;;;;;3.03;74.20;99989.78;5050864;28;20271;-60
2022/03/02 02:47:47;;;;;;;18.57;14.27;;;;;;;3.08;74.21;99983.28;5050385;28;20291;-60
2022/03/02 02:50:16;;;;;;;19.67;13.30;;;;;;;3.06;73.95;99984.88;5050651;28;20312;-60
2022/03/02 02:52:43;;;;;;;20.90;14.17;;;;;;;3.01;73.96;99983.75;5050449;28;20738;-61
2022/03/02 02:55:12;;;;;;;19.63;14.50;;;;;;;2.96;73.96;99982.66;5050527;28;20197;-60
2022/03/02 02:57:39;;;;;;;19.13;14.50;;;;;;;2.99;73.44;99981.13;5050798;28;20207;-61
2022/03/02 03:00:09;;;;;;;16.57;12.97;;;;;;;2.99;73.69;99976.06;5050667;28;20209;-61
2022/03/02 03:02:37;;;;;;;18.27;13.50;;;;;;;2.95;73.41;99971.63;5048808;28;20210;-61
2022/03/02 03:05:04;;;;;;;21.35;16.45;;;;;;;2.83;74.32;99959.94;5034345;28;20613;-61
2022/03/02 03:07:31;;;;;;;19.57;14.90;;;;;;;2.88;74.08;99977.13;5050627;28;20317;-61
2022/03/02 03:09:58;;;;;;;15.80;13.33;;;;;;;2.76;74.17;99968.88;5044665;28;20203;-60
2022/03/02 03:12:26;;;;;;;17.00;11.73;;;;;;;2.77;74.52;99975.72;5044055;28;20850;-59
2022/03/02 03:14:53;;;;;;;14.67;11.93;;;;;;;2.76;74.54;99983.22;5049897;28;20261;-61
2022/03/02 03:17:20;;;;;;;14.47;12.57;;;;;;;2.73;74.67;99976.31;5048498;28;20232;-61
2022/03/02 03:19:47;;;;;;;15.77;12.80;;;;;;;2.77;74.75;99972.31;5050337;28;20212;-61
2022/03/02 03:22:14;;;;;;;19.60;14.20;;;;;;;2.46;74.61;99913.94;5050070;28;20295;-61
2022/03/02 03:24:41;;;;;;;19.53;15.47;;;;;;;2.76;74.92;99965.47;5050192;28;20317;-61
2022/03/02 03:27:08;;;;;;;19.77;14.77;;;;;;;2.78;75.03;99977.44;5050403;28;20976;-61
2022/03/02 03:29:36;;;;;;;16.10;13.67;;;;;;;2.78;75.41;99974.91;5050306;28;20228;-60
2022/03/02 03:32:03;;;;;;;22.30;16.67;;;;;;;2.80;75.15;99972.47;5041971;28;20856;-61
2022/03/02 03:34:30;;;;;;;22.13;15.77;;;;;;;2.87;75.03;99975.41;5049816;28;20224;-61
2022/03/02 03:36:57;;;;;;;20.83;14.13;;;;;;;2.87;74.79;99975.41;5043412;28;20205;-61
2022/03/02 03:39:24;;;;;;;21.23;15.40;;;;;;;2.80;75.39;99960.63;5033066;28;20670;-61
2022/03/02 03:41:51;;;;;;;18.47;14.53;;;;;;;2.83;75.17;99968.41;5034226;28;20571;-61
2022/03/02 03:44:18;;;;;;;17.90;14.30;;;;;;;2.80;75.79;99973.31;5034160;28;20287;-61
2022/03/02 03:46:46;;;;;;;18.60;13.93;;;;;;;2.86;76.04;99972.78;5034020;28;20224;-61
2022/03/02 03:49:13;;;;;;;22.52;18.13;;;;;;;2.89;76.07;99965.34;5033683;28;20507;-61
2022/03/02 03:51:40;;;;;;;21.80;16.40;;;;;;;3.00;75.74;99966.78;5033666;28;20285;-60
2022/03/02 03:54:08;;;;;;;21.27;16.53;;;;;;;3.00;75.48;99964.25;5033866;28;20619;-61
2022/03/02 03:56:35;;;;;;;19.23;15.10;;;;;;;2.94;76.27;99962.25;5033809;28;20274;-61
2022/03/02 03:59:02;;;;;;;21.30;14.83;;;;;;;2.96;76.14;99962.34;5033781;28;20292;-61
2022/03/02 04:01:29;;;;;;;25.60;16.43;;;;;;;2.91;76.04;99958.69;5033614;28;20288;-61
2022/03/02 04:03:58;;;;;;;22.03;15.87;;;;;;;2.80;77.00;99955.56;5033953;28;20280;-60
2022/03/02 04:06:24;;;;;;;19.63;15.80;;;;;;;2.72;77.95;99956.81;5033903;28;20278;-60
2022/03/02 04:08:51;;;;;;;22.53;16.83;;;;;;;2.74;78.37;99956.91;5033488;28;20194;-60
2022/03/02 04:11:18;;;;;;;24.77;17.00;;;;;;;2.65;78.90;99952.22;5033907;28;20580;-60
2022/03/02 04:13:45;;;;;;;26.77;18.80;;;;;;;2.65;78.83;99954.75;5033578;28;20216;-60
2022/03/02 04:16:12;;;;;;;26.80;20.42;;;;;;;2.64;78.86;99947.03;5033413;28;20459;-60
2022/03/02 04:18:39;;;;;;;25.60;18.67;;;;;;;2.57;79.30;99960.19;5033545;28;20193;-60
2022/03/02 04:21:08;;;;;;;25.03;17.87;;;;;;;2.61;79.02;99962.97;5033306;28;20655;-60
2022/03/02 04:23:35;;;;;;;24.53;18.17;;;;;;;2.62;78.90;99958.78;5033777;28;20192;-60
2022/03/02 04:26:02;;;;;;;26.77;20.60;;;;;;;2.67;78.77;99952.28;5033469;28;20578;-60
2022/03/02 04:28:29;;;;;;;29.57;20.10;;;;;;;2.64;78.54;99950.44;5041880;28;20283;-59
2022/03/02 04:30:56;;;;;;;24.07;18.90;;;;;;;2.65;78.63;99942.06;5053295;28;20266;-60
2022/03/02 04:33:23;;;;;;;28.65;22.88;;;;;;;2.71;78.76;99941.53;5052412;28;20454;-60
2022/03/02 04:35:50;;;;;;;34.67;22.10;;;;;;;2.69;78.29;99938.88;5053335;28;20287;-60
2022/03/02 04:38:19;;;;;;;31.98;23.75;;;;;;;2.64;79.02;99942.84;5052243;28;20462;-61
2022/03/02 04:40:46;;;;;;;29.13;20.07;;;;;;;2.58;79.33;99934.03;5053024;28;20192;-60
2022/03/02 04:43:12;;;;;;;28.07;20.27;;;;;;;2.60;79.53;99940.06;5052401;28;20294;-60
2022/03/02 04:45:39;;;;;;;30.57;19.97;;;;;;;2.57;79.68;99938.25;5053010;28;20284;-61
2022/03/02 04:48:08;;;;;;;30.47;19.67;;;;;;;2.52;80.26;99942.19;5052693;28;20211;-59
2022/03/02 04:50:36;;;;;;;28.33;19.73;;;;;;;2.48;80.06;99937.72;5031676;28;20276;-60
2022/03/02 04:53:03;;;;;;;30.13;20.93;;;;;;;2.38;80.43;99920.28;5032794;28;20221;-60
2022/03/02 04:55:32;;;;;;;33.92;24.23;;;;;;;2.48;80.59;99942.78;5032034;28;20520;-60
2022/03/02 04:58:00;;;;;;;28.33;21.70;;;;;;;2.49;80.59;99936.06;5032720;28;20540;-60
2022/03/02 05:00:29;;;;;;;33.45;23.48;;;;;;;2.53;80.55;99936.31;5032428;28;20531;-61
2022/03/02 05:02:57;;;;;;;30.43;21.57;;;;;;;2.48;80.55;99932.66;5032785;28;20280;-60
2022/03/02 05:05:25;;;;;;;25.57;20.57;;;;;;;2.50;80.55;99941.22;5032649;28;20646;-60
2022/03/02 05:07:52;;;;;;;28.40;21.30;;;;;;;2.48;80.39;99937.72;5032460;28;20289;-60
2022/03/02 05:10:21;;;;;;;29.47;20.20;;;;;;;2.45;80.43;99945.16;5032528;28;20284;-60
2022/03/02 05:12:50;;;;;;;27.00;19.97;;;;;;;2.46;80.66;99936.78;5032477;28;20294;-60
2022/03/02 05:15:18;;;;;;;26.67;18.77;;;;;;;2.23;80.43;99902.53;5037490;28;20194;-61
2022/03/02 05:17:45;;;;;;;30.80;23.15;;;;;;;2.52;80.66;99939.66;5050960;28;20986;-60
2022/03/02 05:20:14;;;;;;;26.37;18.90;;;;;;;2.57;80.18;99930.63;5051611;28;20668;-60
2022/03/02 05:22:41;;;;;;;30.58;19.80;;;;;;;2.61;79.57;99939.28;5050668;28;20518;-60
2022/03/02 05:25:10;;;;;;;26.87;18.80;;;;;;;2.66;79.76;99933.69;5051789;28;20271;-61
2022/03/02 05:27:37;;;;;;;22.57;17.77;;;;;;;2.71;78.28;99937.31;5048936;28;20197;-59
2022/03/02 05:30:08;;;;;;;23.23;18.53;;;;;;;2.78;78.35;99934.31;5051856;28;20227;-60
2022/03/02 05:32:34;;;;;;;26.47;18.00;;;;;;;2.85;77.79;99941.47;5051778;28;20199;-60
2022/03/02 05:35:02;;;;;;;30.03;19.00;;;;;;;2.93;77.41;99929.19;5043451;28;20216;-60
2022/03/02 05:37:28;;;;;;;23.80;19.17;;;;;;;2.95;76.89;99931.00;5050898;28;20194;-60
2022/03/02 05:39:55;;;;;;;24.20;18.27;;;;;;;3.07;76.88;99935.88;5051668;28;20200;-60
2022/03/02 05:42:22;;;;;;;34.77;19.83;;;;;;;3.12;76.81;99933.56;5051787;28;20562;-60
2022/03/02 05:44:49;;;;;;;35.25;21.02;;;;;;;3.18;75.90;99931.34;5051462;28;20444;-60
2022/03/02 05:47:18;;;;;;;29.07;18.50;;;;;;;3.23;75.59;99940.94;5050684;28;20296;-61
2022/03/02 05:49:45;;;;;;;29.10;19.77;;;;;;;2.86;74.84;99864.56;5051716;28;20201;-61
2022/03/02 05:52:12;;;;;;;28.80;20.20;;;;;;;3.37;74.48;99937.47;5049910;28;20260;-61
2022/03/02 05:54:38;;;;;;;24.00;17.90;;;;;;;3.31;74.29;99938.81;5049588;28;20300;-61
2022/03/02 05:57:06;;;;;;;22.63;17.30;;;;;;;3.39;74.12;99953.66;5050541;28;20195;-57
2022/03/02 05:59:33;;;;;;;22.47;17.67;;;;;;;3.39;74.13;99956.19;5050977;28;20219;-58
2022/03/02 06:02:00;;;;;;;30.13;22.05;;;;;;;3.33;74.21;99937.22;5049927;28;20538;-61
2022/03/02 06:04:28;;;;;;;24.97;19.63;;;;;;;3.44;74.62;99957.28;5051050;28;20558;-61
2022/03/02 06:06:55;;;;;;;29.58;19.00;;;;;;;3.51;74.22;99956.81;5050779;28;20930;-61
2022/03/02 06:09:22;;;;;;;23.47;18.57;;;;;;;3.51;74.42;99951.75;5051104;28;20227;-60
2022/03/02 06:11:50;;;;;;;29.30;19.23;;;;;;;3.45;74.07;99961.59;5050619;28;20710;-60
2022/03/02 06:14:17;;;;;;;27.87;20.57;;;;;;;3.51;73.48;99956.81;5050307;28;20200;-60
2022/03/02 06:16:45;;;;;;;23.77;20.03;;;;;;;3.56;74.18;99957.94;5046570;28;20197;-60
2022/03/02 06:19:13;;;;;;;27.27;20.40;;;;;;;3.64;73.35;99959.97;5039080;28;20232;-60
2022/03/02 06:21:43;;;;;;;25.87;18.47;;;;;;;3.71;72.50;99952.72;5031276;28;20268;-60
2022/03/02 06:24:13;;;;;;;27.80;19.33;;;;;;;3.82;72.13;99956.69;5031107;28;20194;-61
2022/03/02 06:26:41;;;;;;;26.27;19.27;;;;;;;3.97;71.83;99956.56;5031415;28;20193;-60
2022/03/02 06:29:08;;;;;;;23.60;17.57;;;;;;;4.02;71.39;99956.00;5031116;28;20228;-61
2022/03/02 06:31:35;;;;;;;25.47;18.90;;;;;;;4.01;71.03;99954.25;5031367;28;20225;-60
2022/03/02 06:34:02;;;;;;;31.07;20.83;;;;;;;4.01;70.65;99958.50;5043233;28;20304;-60
2022/03/02 06:36:29;;;;;;;27.80;19.83;;;;;;;3.96;70.50;99940.44;5050888;28;20193;-61
2022/03/02 06:38:57;;;;;;;30.57;21.10;;;;;;;4.03;70.74;99959.44;5050765;28;20200;-61
2022/03/02 06:41:30;;;;;;;24.00;18.80;;;;;;;3.95;70.32;99960.72;5050808;28;20216;-60
2022/03/02 06:44:03;;;;;;;29.43;20.17;;;;;;;4.06;70.61;99954.50;5048527;28;20213;-61
2022/03/02 06:46:41;;;;;;;29.08;20.52;;;;;;;4.15;69.91;99952.38;5049597;28;20439;-60
2022/03/02 06:49:17;;;;;;;27.00;21.70;;;;;;;4.22;69.79;99956.09;5033586;28;20260;-60
2022/03/02 06:51:47;;;;;;;34.07;21.97;;;;;;;4.27;69.02;99950.44;5048012;28;20193;-61
2022/03/02 06:54:22;;;;;;;27.73;21.00;;;;;;;4.35;69.10;99955.88;5049347;28;20713;-61
2022/03/02 06:56:53;;;;;;;27.33;20.03;;;;;;;4.39;68.33;99957.78;5048232;28;20194;-61
2022/03/02 06:59:26;;;;;;;28.77;21.97;;;;;;;4.52;67.87;99971.16;5049513;28;20192;-60
2022/03/02 07:01:53;;;;;;;29.17;21.00;;;;;;;4.59;67.02;99959.59;5049678;28;20195;-60
2022/03/02 07:04:21;;;;;;;31.27;21.83;;;;;;;4.45;66.10;99919.94;5050081;28;20194;-60
2022/03/02 07:06:49;;;;;;;28.63;20.97;;;;;;;4.72;65.39;99950.06;5049970;28;20576;-61
2022/03/02 07:09:20;;;;;;;31.65;26.95;;;;;;;4.77;65.93;99952.84;5049170;28;20798;-60
2022/03/02 07:11:48;;;;;;;27.57;21.80;;;;;;;4.88;66.15;99955.88;5049435;28;20208;-59
2022/03/02 07:14:16;;;;;;;33.27;23.47;;;;;;;4.88;66.03;99951.66;5049197;28;20227;-60
2022/03/02 07:16:44;;;;;;;33.13;22.73;;;;;;;4.87;65.40;99947.34;5050065;28;20255;-60
2022/03/02 07:19:11;;;;;;;28.50;21.57;;;;;;;5.00;65.09;99942.00;5049381;28;20198;-61
2022/03/02 07:21:42;;;;;;;25.30;17.53;;;;;;;5.07;62.54;99941.50;5049220;28;20663;-59
2022/03/02 07:24:16;;;;;;;24.35;19.40;;;;;;;5.28;61.99;99944.09;5046780;28;20914;-61
2022/03/02 07:26:46;;;;;;;23.40;18.27;;;;;;;5.47;60.70;99935.59;5047950;28;20202;-61
2022/03/02 07:29:15;;;;;;;17.80;13.83;;;;;;;5.51;57.46;99932.38;5045233;28;20227;-62
2022/03/02 07:31:43;;;;;;;18.60;14.90;;;;;;;5.45;55.07;99940.63;5048799;28;20438;-61
2022/03/02 07:34:13;;;;;;;18.77;12.70;;;;;;;5.54;53.30;99928.28;5049676;28;20217;-60
2022/03/02 07:36:41;;;;;;;13.30;10.37;;;;;;;5.55;53.27;99929.16;5050250;28;20200;-60
2022/03/02 07:39:08;;;;;;;16.33;11.23;;;;;;;5.17;52.64;99864.69;5050229;28;20190;-61
2022/03/02 07:41:36;;;;;;;12.03;10.23;;;;;;;5.45;52.49;99914.28;5049900;28;20204;-60
2022/03/02 07:44:05;;;;;;;13.33;10.93;;;;;;;5.49;52.59;99909.41;5049864;28;20568;-61
2022/03/02 07:46:33;;;;;;;14.87;11.60;;;;;;;5.50;52.23;99915.34;5049358;28;20206;-59
2022/03/02 07:49:00;;;;;;;13.87;11.00;;;;;;;5.46;51.89;99918.56;5049711;28;20196;-59
2022/03/02 07:51:27;;;;;;;13.03;9.63;;;;;;;5.33;52.39;99907.84;5049884;28;20194;-59
2022/03/02 07:54:00;;;;;;;13.27;9.93;;;;;;;5.43;52.34;99904.03;5049310;28;20312;-59
2022/03/02 07:56:29;;;;;;;12.63;9.87;;;;;;;5.51;52.42;99897.59;5049335;28;20199;-59
2022/03/02 07:59:01;;;;;;;12.13;9.73;;;;;;;5.60;52.52;99897.09;5049317;28;20193;-59
2022/03/02 08:01:34;;;;;;;15.70;10.73;;;;;;;5.77;52.88;99891.88;5049303;28;20204;-58
2022/03/02 08:04:05;;;;;;;14.33;10.87;;;;;;;5.76;53.18;99889.28;5049673;28;20624;-59
2022/03/02 08:06:35;;;;;;;12.07;10.77;;;;;;;5.96;52.31;99882.47;5048588;28;20454;-58
2022/03/02 08:09:05;;;;;;;17.63;11.30;;;;;;;6.03;51.69;99882.78;5049039;28;20672;-58
2022/03/02 08:11:33;;;;;;;18.25;11.43;;;;;;;6.04;52.16;99874.34;5047624;28;20451;-58
2022/03/02 08:14:01;;;;;;;16.10;10.23;;;;;;;6.08;51.98;99877.84;5049346;28;20189;-59
2022/03/02 08:16:30;;;;;;;15.97;9.93;;;;;;;6.18;52.29;99875.72;5049112;28;20247;-57
2022/03/02 08:18:58;;;;;;;15.37;10.20;;;;;;;6.13;52.98;99874.69;5049354;28;20272;-58
2022/03/02 08:21:30;;;;;;;15.53;10.23;;;;;;;6.18;52.99;99859.56;5049459;28;20511;-58
2022/03/02 08:23:58;;;;;;;10.30;9.20;;;;;;;6.27;52.27;99876.09;5049627;28;20640;-59
2022/03/02 08:26:27;;;;;;;11.00;9.00;;;;;;;6.40;51.93;99857.06;5052989;28;20210;-58
2022/03/02 08:28:56;;;;;;;10.10;8.80;;;;;;;6.51;51.18;99851.50;5052588;28;20326;-59
2022/03/02 08:31:25;;;;;;;10.47;9.37;;;;;;;6.49;51.61;99853.16;5053037;28;20278;-58
2022/03/02 08:33:54;;;;;;;10.07;9.07;;;;;;;6.54;51.11;99850.75;5041036;28;20197;-59
2022/03/02 08:36:24;;;;;;;12.03;8.87;;;;;;;6.57;51.20;99845.78;5038679;28;20195;-60
2022/03/02 08:38:52;;;;;;;10.40;8.40;;;;;;;6.61;50.33;99850.19;5045294;28;20647;-60
2022/03/02 08:41:20;;;;;;;10.67;9.50;;;;;;;6.47;50.67;99808.84;5033032;28;20221;-60
2022/03/02 08:43:48;;;;;;;9.90;8.90;;;;;;;6.70;51.14;99836.91;5032592;28;20225;-61
2022/03/02 08:46:15;;;;;;;9.77;8.77;;;;;;;6.56;50.61;99832.97;5032823;28;20216;-61
2022/03/02 08:48:42;;;;;;;10.77;8.60;;;;;;;6.68;51.07;99821.50;5032735;28;20195;-61
2022/03/02 08:51:11;;;;;;;8.70;7.80;;;;;;;6.75;49.17;99823.50;5032974;28;20198;-62
2022/03/02 08:53:39;;;;;;;10.20;7.87;;;;;;;6.80;49.78;99816.84;5032829;28;20193;-61
2022/03/02 08:56:06;;;;;;;12.30;9.05;;;;;;;6.75;49.76;99826.03;5031840;28;20445;-61
2022/03/02 08:58:33;;;;;;;8.27;7.40;;;;;;;6.82;48.50;99816.91;5044399;28;20551;-61
2022/03/02 09:01:01;;;;;;;9.20;8.27;;;;;;;7.08;49.19;99814.47;5051236;28;20208;-60
2022/03/02 09:03:32;;;;;;;9.47;8.40;;;;;;;7.08;48.67;99813.59;5068943;28;20210;-62
2022/03/02 09:06:01;;;;;;;9.20;8.30;;;;;;;7.21;48.56;99810.66;5060162;28;20614;-60
2022/03/02 09:08:29;;;;;;;10.23;8.00;;;;;;;7.28;48.33;99807.47;5052290;28;20183;-61
2022/03/02 09:10:56;;;;;;;10.05;8.90;;;;;;;7.30;48.32;99803.31;5070799;28;20442;-61
2022/03/02 09:13:23;;;;;;;10.17;8.97;;;;;;;7.52;47.42;99799.78;5072246;28;20230;-60
2022/03/02 09:15:50;;;;;;;9.57;8.53;;;;;;;7.70;48.06;99795.25;5071951;28;20226;-60
2022/03/02 09:18:17;;;;;;;12.37;8.70;;;;;;;7.77;48.23;99798.88;5052787;28;20199;-60
2022/03/02 09:20:46;;;;;;;9.77;8.10;;;;;;;7.61;46.39;99795.81;5032192;28;20262;-61
2022/03/02 09:23:13;;;;;;;8.33;7.43;;;;;;;7.31;45.86;99794.81;5054378;28;20211;-60
2022/03/02 09:25:43;;;;;;;7.47;6.67;;;;;;;7.13;46.96;99794.19;5071644;28;20189;-60
2022/03/02 09:28:11;;;;;;;8.23;7.43;;;;;;;7.15;47.22;99787.44;5071877;28;20194;-60
2022/03/02 09:30:38;;;;;;;7.70;6.40;;;;;;;7.13;47.03;99779.72;5071637;28;20264;-61
2022/03/02 09:33:12;;;;;;;9.65;7.93;;;;;;;7.28;46.72;99781.91;5070615;28;20698;-61
2022/03/02 09:35:39;;;;;;;7.63;6.10;;;;;;;7.22;47.11;99775.75;5070576;28;20222;-60
2022/03/02 09:38:07;;;;;;;8.27;6.43;;;;;;;7.37;45.73;99773.69;5071808;28;20661;-60
2022/03/02 09:40:35;;;;;;;6.83;6.13;;;;;;;7.40;46.14;99766.13;5071921;28;20628;-60
2022/03/02 09:43:06;;;;;;;7.77;6.97;;;;;;;7.50;45.98;99756.25;5071572;28;20208;-61
2022/03/02 09:45:34;;;;;;;11.20;6.83;;;;;;;7.75;45.10;99732.31;5071236;28;20189;-59
2022/03/02 09:48:04;;;;;;;5.60;5.10;;;;;;;7.93;43.85;99727.78;5071741;28;20201;-61
2022/03/02 09:50:33;;;;;;;5.67;5.17;;;;;;;8.25;43.86;99733.84;5071173;28;20202;-60
2022/03/02 09:53:03;;;;;;;6.60;5.90;;;;;;;8.38;43.70;99732.56;5071234;28;20202;-60
2022/03/02 09:55:30;;;;;;;11.43;9.27;;;;;;;8.61;44.24;99724.69;5070475;28;20958;-61
2022/03/02 09:57:59;;;;;;;6.87;6.27;;;;;;;8.86;43.38;99718.53;5071275;28;20195;-61
2022/03/02 10:00:30;;;;;;;7.57;6.27;;;;;;;8.83;43.27;99705.63;5071027;28;20441;-59
2022/03/02 10:02:58;;;;;;;6.50;5.80;;;;;;;8.86;42.89;99709.16;5071241;28;20198;-59
2022/03/02 10:05:27;;;;;;;7.43;6.50;;;;;;;9.01;43.28;99690.72;5071055;28;20713;-59
2022/03/02 10:08:00;;;;;;;8.10;6.73;;;;;;;9.00;43.13;99696.69;5070957;28;20231;-59
2022/03/02 10:10:31;;;;;;;8.63;7.00;;;;;;;8.90;43.50;99695.56;5070877;28;20279;-59
2022/03/02 10:13:01;;;;;;;7.97;6.73;;;;;;;8.77;44.01;99683.28;5070878;28;20249;-60
2022/03/02 10:15:30;;;;;;;7.33;6.63;;;;;;;8.77;44.67;99683.28;5070627;28;20222;-59
2022/03/02 10:17:59;;;;;;;9.05;8.15;;;;;;;8.87;45.03;99677.56;5070136;28;20528;-59
2022/03/02 10:20:28;;;;;;;8.43;7.17;;;;;;;8.83;45.84;99678.31;5070789;28;20270;-59
2022/03/02 10:23:27;;;;;;;10.53;7.63;;;;;;;8.77;46.27;99669.59;5070838;28;20192;-58
2022/03/02 10:26:03;;;;;;;8.57;6.83;;;;;;;8.63;45.81;99678.63;5070650;28;20198;-58
2022/03/02 10:28:32;;;;;;;8.73;7.47;;;;;;;8.56;45.76;99663.94;5070628;28;20201;-58
2022/03/02 10:31:33;;;;;;;12.10;7.53;;;;;;;8.40;45.33;99665.22;5070623;28;20206;-59
2022/03/02 10:34:10;;;;;;;10.63;6.57;;;;;;;8.54;46.06;99657.91;5059576;28;20194;-60
2022/03/02 10:36:41;;;;;;;12.00;6.30;;;;;;;8.61;45.34;99649.53;5070431;28;20219;-59
2022/03/02 10:39:09;;;;;;;7.03;6.30;;;;;;;8.48;45.49;99647.50;5070045;28;20441;-59
2022/03/02 10:41:39;;;;;;;6.80;6.10;;;;;;;8.48;45.51;99635.56;5070209;28;20221;-59
2022/03/02 10:44:16;;;;;;;7.80;6.90;;;;;;;8.52;45.16;99642.47;5070166;28;20198;-58
2022/03/02 10:46:55;;;;;;;8.80;5.93;;;;;;;8.40;43.91;99637.06;5070405;28;20710;-59
2022/03/02 10:49:23;;;;;;;5.57;4.97;;;;;;;8.37;43.50;99630.97;5067094;28;20573;-59
2022/03/02 10:51:50;;;;;;;5.90;5.30;;;;;;;8.43;43.64;99619.22;5029805;28;20264;-59
2022/03/02 10:54:21;;;;;;;6.10;5.50;;;;;;;8.44;42.75;99612.38;5030435;28;20192;-59
2022/03/02 10:56:52;;;;;;;6.93;5.10;;;;;;;8.43;43.17;99611.53;5029159;28;20224;-59
2022/03/02 10:59:23;;;;;;;7.00;5.20;;;;;;;8.43;42.81;99624.34;5030382;28;20236;-58
2022/03/02 11:01:52;;;;;;;7.27;5.80;;;;;;;8.46;43.28;99603.06;5030210;28;20322;-59
2022/03/02 11:04:21;;;;;;;9.20;5.30;;;;;;;8.59;42.90;99600.88;5032102;28;20200;-60
2022/03/02 11:06:48;;;;;;;6.90;5.20;;;;;;;8.57;42.09;99610.19;5030635;28;20196;-60
2022/03/02 11:09:17;;;;;;;5.90;5.40;;;;;;;8.26;41.87;99559.00;5028538;28;20441;-59
2022/03/02 11:11:44;;;;;;;9.00;6.50;;;;;;;8.76;42.56;99597.00;5032167;28;20207;-59
2022/03/02 11:14:11;;;;;;;6.00;5.27;;;;;;;8.79;42.23;99591.09;5048397;28;20227;-60
2022/03/02 11:16:39;;;;;;;6.57;5.90;;;;;;;8.76;42.84;99586.75;5049960;28;20223;-59
2022/03/02 11:19:16;;;;;;;8.27;6.27;;;;;;;8.71;43.09;99590.03;5050972;28;20655;-59
2022/03/02 11:21:45;;;;;;;8.43;6.63;;;;;;;8.66;42.98;99550.66;5050545;28;20196;-58
2022/03/02 11:24:16;;;;;;;11.15;7.00;;;;;;;9.08;42.98;99581.56;5049427;28;21000;-58
2022/03/02 11:26:46;;;;;;;9.40;6.70;;;;;;;9.31;43.13;99576.09;5050099;28;20693;-59
2022/03/02 11:29:15;;;;;;;7.70;6.10;;;;;;;9.45;42.64;99576.41;5049756;28;20228;-58
2022/03/02 11:31:43;;;;;;;6.77;6.07;;;;;;;9.27;42.04;99576.88;5049778;28;20188;-59